createdAt,value
2022-12-11T00:01:43.052Z,29.27
2022-12-11T00:04:09.733Z,26.17
2022-12-11T00:06:36.366Z,21.63
2022-12-11T00:09:03.123Z,24.07
2022-12-11T00:11:29.792Z,25.10
2022-12-11T00:13:56.471Z,23.87
2022-12-11T00:16:26.852Z,24.63
2022-12-11T00:18:54.527Z,22.27
2022-12-11T00:21:21.173Z,20.33
2022-12-11T00:23:47.835Z,24.43
2022-12-11T00:26:16.028Z,20.70
2022-12-11T00:28:43.830Z,21.07
2022-12-11T00:31:14.786Z,18.70
2022-12-11T00:33:42.431Z,20.17
2022-12-11T00:36:17.774Z,21.97
2022-12-11T00:38:44.664Z,18.23
2022-12-11T00:41:12.501Z,25.63
2022-12-11T00:43:39.185Z,23.30
2022-12-11T00:46:06.011Z,25.67
2022-12-11T00:48:32.870Z,25.30
2022-12-11T00:50:59.804Z,25.60
2022-12-11T00:53:26.532Z,27.20
2022-12-11T00:55:53.210Z,22.37
2022-12-11T00:58:20.145Z,23.70
2022-12-11T01:00:48.378Z,22.60
2022-12-11T01:03:16.110Z,25.10
2022-12-11T01:05:54.212Z,20.70
2022-12-11T01:08:21.464Z,21.07
2022-12-11T01:10:48.300Z,21.20
2022-12-11T01:13:15.463Z,23.00
2022-12-11T01:15:45.233Z,21.53
2022-12-11T01:18:14.440Z,23.53
2022-12-11T01:20:42.695Z,20.77
2022-12-11T01:23:13.038Z,22.60
2022-12-11T01:25:40.677Z,20.97
2022-12-11T01:28:08.489Z,22.47
2022-12-11T01:30:35.934Z,26.47
2022-12-11T01:33:02.935Z,24.07
2022-12-11T01:35:29.591Z,20.23
2022-12-11T01:37:56.434Z,21.07
2022-12-11T01:40:23.194Z,21.10
2022-12-11T01:42:50.407Z,23.57
2022-12-11T01:45:32.153Z,20.30
2022-12-11T01:48:05.470Z,21.80
2022-12-11T01:50:36.282Z,20.57
2022-12-11T01:53:06.322Z,27.37
2022-12-11T01:55:33.452Z,24.23
2022-12-11T01:58:02.326Z,21.93
2022-12-11T02:00:28.979Z,22.57
2022-12-11T02:02:55.767Z,15.77
2022-12-11T02:05:22.422Z,18.23
2022-12-11T02:07:58.537Z,17.03
2022-12-11T02:10:34.667Z,17.43
2022-12-11T02:13:09.936Z,14.60
2022-12-11T02:15:51.667Z,18.47
2022-12-11T02:18:33.490Z,17.47
2022-12-11T02:21:24.885Z,19.33
2022-12-11T02:24:25.735Z,14.70
2022-12-11T02:27:08.910Z,16.67
2022-12-11T02:29:52.044Z,19.37
2022-12-11T02:32:29.620Z,18.13
2022-12-11T02:35:02.973Z,17.67
2022-12-11T02:37:32.148Z,17.87
2022-12-11T02:39:58.824Z,17.00
2022-12-11T02:42:30.856Z,16.73
2022-12-11T02:45:00.674Z,16.20
2022-12-11T02:47:30.558Z,14.27
2022-12-11T02:50:00.274Z,15.80
2022-12-11T02:52:29.974Z,15.80
2022-12-11T02:54:59.689Z,13.77
2022-12-11T02:57:38.444Z,15.57
2022-12-11T03:00:06.557Z,13.17
2022-12-11T03:02:33.251Z,14.87
2022-12-11T03:05:00.176Z,18.50
2022-12-11T03:07:32.853Z,18.80
2022-12-11T03:09:59.889Z,16.77
2022-12-11T03:12:32.780Z,15.00
2022-12-11T03:15:02.051Z,15.63
2022-12-11T03:17:37.601Z,13.63
2022-12-11T03:20:05.186Z,16.17
2022-12-11T03:22:42.786Z,11.87
2022-12-11T03:25:17.013Z,15.60
2022-12-11T03:27:57.128Z,13.07
2022-12-11T03:30:25.849Z,15.37
2022-12-11T03:33:01.238Z,12.60
2022-12-11T03:35:27.854Z,13.17
2022-12-11T03:37:56.704Z,11.07
2022-12-11T03:40:25.823Z,12.77
2022-12-11T03:42:55.942Z,13.77
2022-12-11T03:45:24.875Z,12.37
2022-12-11T03:47:53.626Z,12.50
2022-12-11T03:50:22.808Z,13.97
2022-12-11T03:52:51.097Z,14.00
2022-12-11T03:55:21.210Z,14.40
2022-12-11T03:57:48.621Z,15.00
2022-12-11T04:00:19.788Z,11.50
2022-12-11T04:03:12.717Z,13.40
2022-12-11T04:05:45.568Z,10.77
2022-12-11T04:08:12.677Z,12.40
2022-12-11T04:10:40.450Z,10.60
2022-12-11T04:13:07.995Z,11.27
2022-12-11T04:15:35.486Z,12.60
2022-12-11T04:18:21.066Z,11.53
2022-12-11T04:21:06.177Z,12.03
2022-12-11T04:23:51.592Z,11.30
2022-12-11T04:26:20.326Z,11.20
2022-12-11T04:28:47.966Z,11.90
2022-12-11T04:31:17.931Z,11.77
2022-12-11T04:33:44.723Z,11.30
2022-12-11T04:36:12.468Z,10.37
2022-12-11T04:38:39.192Z,13.17
2022-12-11T04:41:09.497Z,11.87
2022-12-11T04:43:36.528Z,11.10
2022-12-11T04:46:09.870Z,11.13
2022-12-11T04:48:37.391Z,12.50
2022-12-11T04:51:04.400Z,12.60
2022-12-11T04:53:32.442Z,14.57
2022-12-11T04:56:00.195Z,10.17
2022-12-11T04:58:27.333Z,11.57
2022-12-11T05:00:54.227Z,10.97
2022-12-11T05:03:20.855Z,10.20
2022-12-11T05:05:49.502Z,10.83
2022-12-11T05:08:20.177Z,9.00
2022-12-11T05:10:56.886Z,9.97
2022-12-11T05:13:23.526Z,9.40
2022-12-11T05:15:50.436Z,9.60
2022-12-11T05:18:17.105Z,10.00
2022-12-11T05:20:43.746Z,10.00
2022-12-11T05:23:10.358Z,9.57
2022-12-11T05:25:37.123Z,10.47
2022-12-11T05:28:03.813Z,10.70
2022-12-11T05:30:30.450Z,10.77
2022-12-11T05:32:57.213Z,10.97
2022-12-11T05:35:23.782Z,9.43
2022-12-11T05:37:50.377Z,8.00
2022-12-11T05:40:17.025Z,9.20
2022-12-11T05:42:43.726Z,10.07
2022-12-11T05:45:11.038Z,8.70
2022-12-11T05:47:37.770Z,9.97
2022-12-11T05:50:04.533Z,10.67
2022-12-11T05:52:31.960Z,9.10
2022-12-11T05:54:58.541Z,9.13
2022-12-11T05:57:25.156Z,9.23
2022-12-11T05:59:51.805Z,10.87
2022-12-11T06:02:18.672Z,12.00
2022-12-11T06:04:45.361Z,9.20
2022-12-11T06:07:12.135Z,7.90
2022-12-11T06:09:38.807Z,8.57
2022-12-11T06:12:05.521Z,8.90
2022-12-11T06:14:32.186Z,9.33
2022-12-11T06:16:58.797Z,10.57
2022-12-11T06:19:25.430Z,7.73
2022-12-11T06:21:52.036Z,7.90
2022-12-11T06:24:18.709Z,9.37
2022-12-11T06:26:45.372Z,8.20
2022-12-11T06:29:13.215Z,8.93
2022-12-11T06:31:40.420Z,9.83
2022-12-11T06:34:07.266Z,12.07
2022-12-11T06:36:33.945Z,9.47
2022-12-11T06:39:00.638Z,10.83
2022-12-11T06:41:27.328Z,12.20
2022-12-11T06:43:53.970Z,11.20
2022-12-11T06:46:21.276Z,11.90
2022-12-11T06:48:48.877Z,12.20
2022-12-11T06:51:18.347Z,11.50
2022-12-11T06:53:45.704Z,11.10
2022-12-11T06:56:15.270Z,9.90
2022-12-11T06:58:43.049Z,11.33
2022-12-11T07:01:17.496Z,12.50
2022-12-11T07:03:44.451Z,11.43
2022-12-11T07:06:11.168Z,12.90
2022-12-11T07:08:37.837Z,12.80
2022-12-11T07:11:09.614Z,12.10
2022-12-11T07:13:36.632Z,11.33
2022-12-11T07:16:04.759Z,12.23
2022-12-11T07:18:32.391Z,11.93
2022-12-11T07:21:00.452Z,15.90
2022-12-11T07:23:30.078Z,12.90
2022-12-11T07:25:57.800Z,14.03
2022-12-11T07:28:24.532Z,16.77
2022-12-11T07:30:51.198Z,19.30
2022-12-11T07:33:17.847Z,19.90
2022-12-11T07:35:44.590Z,15.17
2022-12-11T07:38:11.644Z,14.33
2022-12-11T07:40:38.287Z,14.00
2022-12-11T07:43:04.912Z,16.73
2022-12-11T07:45:31.961Z,16.00
2022-12-11T07:47:59.214Z,17.50
2022-12-11T07:50:25.821Z,19.30
2022-12-11T07:52:52.732Z,18.00
2022-12-11T07:55:19.362Z,14.77
2022-12-11T07:57:46.028Z,15.13
2022-12-11T08:00:13.001Z,15.03
2022-12-11T08:02:39.651Z,15.13
2022-12-11T08:05:07.067Z,15.50
2022-12-11T08:07:35.631Z,14.97
2022-12-11T08:10:03.171Z,16.10
2022-12-11T08:12:29.905Z,13.30
2022-12-11T08:14:56.536Z,20.33
2022-12-11T08:17:28.733Z,17.70
2022-12-11T08:19:56.871Z,19.47
2022-12-11T08:22:23.486Z,17.60
2022-12-11T08:24:50.107Z,13.13
2022-12-11T08:27:16.785Z,15.57
2022-12-11T08:29:43.447Z,18.87
2022-12-11T08:32:12.476Z,18.93
2022-12-11T08:34:39.600Z,17.47
2022-12-11T08:37:06.233Z,17.93
2022-12-11T08:39:32.822Z,15.50
2022-12-11T08:41:59.453Z,17.30
2022-12-11T08:44:27.193Z,17.67
2022-12-11T08:46:53.829Z,17.20
2022-12-11T08:49:20.500Z,13.67
2022-12-11T08:51:47.140Z,13.00
2022-12-11T08:54:13.778Z,17.30
2022-12-11T08:56:40.434Z,22.37
2022-12-11T08:59:07.427Z,18.50
2022-12-11T09:01:34.250Z,15.23
2022-12-11T09:04:00.933Z,16.60
2022-12-11T09:06:30.150Z,17.40
2022-12-11T09:08:59.917Z,19.07
2022-12-11T09:11:29.382Z,17.03
2022-12-11T09:13:56.115Z,17.43
2022-12-11T09:16:24.917Z,18.67
2022-12-11T09:18:53.522Z,19.83
2022-12-11T09:21:22.625Z,18.33
2022-12-11T09:23:52.361Z,17.43
2022-12-11T09:26:20.168Z,19.50
2022-12-11T09:28:47.485Z,16.60
2022-12-11T09:31:24.906Z,18.57
2022-12-11T09:33:55.109Z,13.53
2022-12-11T09:36:22.187Z,13.00
2022-12-11T09:38:49.041Z,13.87
2022-12-11T09:41:21.637Z,13.33
2022-12-11T09:44:20.794Z,13.47
2022-12-11T09:46:48.705Z,13.33
2022-12-11T09:49:39.489Z,14.40
2022-12-11T09:52:32.571Z,13.77
2022-12-11T09:55:03.955Z,12.63
2022-12-11T09:57:55.781Z,14.07
2022-12-11T10:00:59.536Z,12.03
2022-12-11T10:03:47.293Z,12.77
2022-12-11T10:06:33.200Z,14.57
2022-12-11T10:09:25.572Z,13.63
2022-12-11T10:12:17.162Z,14.40
2022-12-11T10:15:05.309Z,12.77
2022-12-11T10:17:36.922Z,14.80
2022-12-11T10:20:15.604Z,11.60
2022-12-11T10:22:42.778Z,11.73
2022-12-11T10:25:25.507Z,14.07
2022-12-11T10:27:52.974Z,13.57
2022-12-11T10:30:25.962Z,12.70
2022-12-11T10:33:09.168Z,13.00
2022-12-11T10:35:41.944Z,11.80
2022-12-11T10:38:23.981Z,14.20
2022-12-11T10:40:54.784Z,11.93
2022-12-11T10:43:35.803Z,14.33
2022-12-11T10:46:03.542Z,12.53
2022-12-11T10:48:30.237Z,11.57
2022-12-11T10:51:07.143Z,11.70
2022-12-11T10:53:38.873Z,11.70
2022-12-11T10:56:06.697Z,11.63
2022-12-11T10:58:37.450Z,11.70
2022-12-11T11:01:14.209Z,12.10
2022-12-11T11:04:04.835Z,11.80
2022-12-11T11:06:31.532Z,11.53
2022-12-11T11:09:00.494Z,10.07
2022-12-11T11:11:33.868Z,13.47
2022-12-11T11:14:22.821Z,10.57
2022-12-11T11:16:52.573Z,11.27
2022-12-11T11:19:29.359Z,12.17
2022-12-11T11:22:05.572Z,10.90
2022-12-11T11:24:41.602Z,13.20
2022-12-11T11:27:14.502Z,13.90
2022-12-11T11:29:42.726Z,13.07
2022-12-11T11:32:23.976Z,15.00
2022-12-11T11:34:50.650Z,11.43
2022-12-11T11:37:33.950Z,11.93
2022-12-11T11:40:13.886Z,10.60
2022-12-11T11:42:40.510Z,15.00
2022-12-11T11:45:16.956Z,12.00
2022-12-11T11:48:07.781Z,9.43
2022-12-11T11:50:41.046Z,8.80
2022-12-11T11:53:38.274Z,11.13
2022-12-11T11:56:17.879Z,8.63
2022-12-11T11:59:34.564Z,10.67
2022-12-11T12:02:01.238Z,9.73
2022-12-11T12:04:35.010Z,9.40
2022-12-11T12:07:20.406Z,8.70
2022-12-11T12:10:34.929Z,8.27
2022-12-11T12:13:23.817Z,9.20
2022-12-11T12:15:59.445Z,9.20
2022-12-11T12:18:58.403Z,8.50
2022-12-11T12:21:35.689Z,8.10
2022-12-11T12:24:20.573Z,7.30
2022-12-11T12:26:55.912Z,10.63
2022-12-11T12:29:53.518Z,8.60
2022-12-11T12:32:59.256Z,10.40
2022-12-11T12:35:36.627Z,10.00
2022-12-11T12:38:30.368Z,11.33
2022-12-11T12:41:20.530Z,11.70
2022-12-11T12:44:11.235Z,12.00
2022-12-11T12:46:40.906Z,8.83
2022-12-11T12:49:13.621Z,10.53
2022-12-11T12:51:43.628Z,10.20
2022-12-11T12:54:16.565Z,11.20
2022-12-11T12:56:45.244Z,9.20
2022-12-11T12:59:26.923Z,7.77
2022-12-11T13:01:57.379Z,14.00
2022-12-11T13:05:01.103Z,10.80
2022-12-11T13:07:28.552Z,8.53
2022-12-11T13:10:21.736Z,8.67
2022-12-11T13:12:48.555Z,6.17
2022-12-11T13:15:35.757Z,8.60
2022-12-11T13:18:34.948Z,8.30
2022-12-11T13:21:03.985Z,6.97
2022-12-11T13:23:35.269Z,10.13
2022-12-11T13:26:04.135Z,12.50
2022-12-11T13:28:33.666Z,9.27
2022-12-11T13:31:04.539Z,7.93
2022-12-11T13:33:32.554Z,11.83
2022-12-11T13:36:25.503Z,11.03
2022-12-11T13:38:56.957Z,8.80
2022-12-11T13:41:24.048Z,9.20
2022-12-11T13:43:52.437Z,6.40
2022-12-11T13:46:29.330Z,5.70
2022-12-11T13:49:01.034Z,6.63
2022-12-11T13:51:30.649Z,6.07
2022-12-11T13:54:06.343Z,7.10
2022-12-11T13:56:33.219Z,9.60
2022-12-11T13:58:59.848Z,10.60
2022-12-11T14:01:32.753Z,8.40
2022-12-11T14:04:12.516Z,7.10
2022-12-11T14:06:39.946Z,8.40
2022-12-11T14:09:08.289Z,12.17
2022-12-11T14:11:37.880Z,6.10
2022-12-11T14:14:17.983Z,6.13
2022-12-11T14:16:51.719Z,7.90
2022-12-11T14:19:21.038Z,7.10
2022-12-11T14:22:02.387Z,6.83
2022-12-11T14:24:30.267Z,9.67
2022-12-11T14:26:57.802Z,9.00
2022-12-11T14:29:25.776Z,8.27
2022-12-11T14:31:53.080Z,8.40
2022-12-11T14:34:26.505Z,10.83
2022-12-11T14:36:54.487Z,9.03
2022-12-11T14:39:28.600Z,6.43
2022-12-11T14:42:13.781Z,8.37
2022-12-11T14:44:49.226Z,11.63
2022-12-11T14:47:27.383Z,9.57
2022-12-11T14:49:59.198Z,11.47
2022-12-11T14:52:31.290Z,7.20
2022-12-11T14:55:09.185Z,7.47
2022-12-11T14:57:37.110Z,8.00
2022-12-11T15:00:05.551Z,7.50
2022-12-11T15:02:35.487Z,8.67
2022-12-11T15:05:12.278Z,7.60
2022-12-11T15:07:41.215Z,8.87
2022-12-11T15:10:20.986Z,7.70
2022-12-11T15:12:47.670Z,9.90
2022-12-11T15:15:18.212Z,8.13
2022-12-11T15:17:51.161Z,6.97
2022-12-11T15:20:26.855Z,6.67
2022-12-11T15:22:54.644Z,10.23
2022-12-11T15:25:27.151Z,9.83
2022-12-11T15:27:56.920Z,7.10
2022-12-11T15:30:26.943Z,9.40
2022-12-11T15:33:19.949Z,9.23
2022-12-11T15:36:24.424Z,9.60
2022-12-11T15:38:51.189Z,5.07
2022-12-11T15:41:21.508Z,8.50
2022-12-11T15:43:48.254Z,7.00
2022-12-11T15:46:15.001Z,9.60
2022-12-11T15:48:41.702Z,7.50
2022-12-11T15:51:09.757Z,9.90
2022-12-11T15:53:40.035Z,6.43
2022-12-11T15:56:07.256Z,8.00
2022-12-11T15:58:35.569Z,7.13
2022-12-11T16:01:02.425Z,8.70
2022-12-11T16:03:29.294Z,6.83
2022-12-11T16:05:56.036Z,7.63
2022-12-11T16:08:24.261Z,7.37
2022-12-11T16:10:54.099Z,7.53
2022-12-11T16:13:21.564Z,8.57
2022-12-11T16:15:50.635Z,6.93
2022-12-11T16:18:22.599Z,9.70
2022-12-11T16:20:51.296Z,9.43
2022-12-11T16:23:18.525Z,7.03
2022-12-11T16:25:46.812Z,7.23
2022-12-11T16:28:15.561Z,8.10
2022-12-11T16:30:43.703Z,8.73
2022-12-11T16:33:13.093Z,7.10
2022-12-11T16:35:42.090Z,7.90
2022-12-11T16:38:10.161Z,8.13
2022-12-11T16:40:37.822Z,8.60
2022-12-11T16:43:05.812Z,14.37
2022-12-11T16:45:32.730Z,7.23
2022-12-11T16:48:02.851Z,10.13
2022-12-11T16:50:29.462Z,10.30
2022-12-11T16:52:57.090Z,8.27
2022-12-11T16:55:23.874Z,12.57
2022-12-11T16:57:50.545Z,9.97
2022-12-11T17:00:17.517Z,16.73
2022-12-11T17:02:44.279Z,19.60
2022-12-11T17:05:11.544Z,12.73
2022-12-11T17:07:38.489Z,13.43
2022-12-11T17:10:05.506Z,13.90
2022-12-11T17:12:32.201Z,13.77
2022-12-11T17:14:58.955Z,10.40
2022-12-11T17:17:25.865Z,16.27
2022-12-11T17:19:52.509Z,13.17
2022-12-11T17:22:19.303Z,13.07
2022-12-11T17:24:45.995Z,13.23
2022-12-11T17:27:12.633Z,10.67
2022-12-11T17:29:39.875Z,12.80
2022-12-11T17:32:06.900Z,14.97
2022-12-11T17:34:38.063Z,14.10
2022-12-11T17:37:05.669Z,11.40
2022-12-11T17:39:32.376Z,14.30
2022-12-11T17:41:59.109Z,12.67
2022-12-11T17:44:26.901Z,9.67
2022-12-11T17:46:53.773Z,9.80
2022-12-11T17:49:20.586Z,9.43
2022-12-11T17:51:48.048Z,11.00
2022-12-11T17:54:15.119Z,7.80
2022-12-11T17:56:41.766Z,11.10
2022-12-11T17:59:08.433Z,10.23
2022-12-11T18:01:35.256Z,15.60
2022-12-11T18:04:02.434Z,10.93
2022-12-11T18:06:29.970Z,13.47
2022-12-11T18:08:57.485Z,11.37
2022-12-11T18:11:24.508Z,11.60
2022-12-11T18:13:52.532Z,11.03
2022-12-11T18:16:32.611Z,8.40
2022-12-11T18:18:59.599Z,9.87
2022-12-11T18:21:32.223Z,12.50
2022-12-11T18:23:59.431Z,12.13
2022-12-11T18:26:27.405Z,8.77
2022-12-11T18:28:54.230Z,8.53
2022-12-11T18:31:21.845Z,12.40
2022-12-11T18:33:48.900Z,9.80
2022-12-11T18:36:16.843Z,13.00
2022-12-11T18:38:43.762Z,11.97
2022-12-11T18:41:13.203Z,11.50
2022-12-11T18:43:40.903Z,9.90
2022-12-11T18:46:14.380Z,10.17
2022-12-11T18:48:42.828Z,9.33
2022-12-11T18:51:12.299Z,11.17
2022-12-11T18:53:43.802Z,12.60
2022-12-11T18:56:15.664Z,9.93
2022-12-11T18:58:42.924Z,10.00
2022-12-11T19:01:17.418Z,11.70
2022-12-11T19:03:44.500Z,11.30
2022-12-11T19:06:18.982Z,12.83
2022-12-11T19:08:46.327Z,10.17
2022-12-11T19:11:23.557Z,10.03
2022-12-11T19:13:51.576Z,9.30
2022-12-11T19:16:22.477Z,8.60
2022-12-11T19:18:50.317Z,6.47
2022-12-11T19:21:18.731Z,4.83
2022-12-11T19:23:46.386Z,3.97
2022-12-11T19:26:16.066Z,3.60
2022-12-11T19:28:43.137Z,5.67
2022-12-11T19:31:15.281Z,5.10
2022-12-11T19:33:43.347Z,6.73
2022-12-11T19:36:16.639Z,4.77
2022-12-11T19:38:45.252Z,5.10
2022-12-11T19:41:29.165Z,4.60
2022-12-11T19:43:57.513Z,5.13
2022-12-11T19:46:24.392Z,5.77
2022-12-11T19:48:55.850Z,5.37
2022-12-11T19:51:25.493Z,5.33
2022-12-11T19:53:52.326Z,8.13
2022-12-11T19:56:20.216Z,6.80
2022-12-11T19:58:47.622Z,6.87
2022-12-11T20:01:28.757Z,8.03
2022-12-11T20:03:58.428Z,6.60
2022-12-11T20:06:27.651Z,7.03
2022-12-11T20:08:54.377Z,6.73
2022-12-11T20:11:21.150Z,9.60
2022-12-11T20:13:48.556Z,7.33
2022-12-11T20:16:17.037Z,9.07
2022-12-11T20:18:44.418Z,7.20
2022-12-11T20:21:14.440Z,7.80
2022-12-11T20:23:41.554Z,7.63
2022-12-11T20:26:14.963Z,8.60
2022-12-11T20:28:42.755Z,8.00
2022-12-11T20:31:20.037Z,7.13
2022-12-11T20:33:49.304Z,6.80
2022-12-11T20:36:18.952Z,9.83
2022-12-11T20:38:46.226Z,8.63
2022-12-11T20:41:15.307Z,7.53
2022-12-11T20:43:42.516Z,8.10
2022-12-11T20:46:11.945Z,10.80
2022-12-11T20:48:40.386Z,11.03
2022-12-11T20:51:09.756Z,8.70
2022-12-11T20:53:42.657Z,10.83
2022-12-11T20:56:16.252Z,11.77
2022-12-11T20:58:43.627Z,12.87
2022-12-11T21:01:19.173Z,10.63
2022-12-11T21:03:46.542Z,10.93
2022-12-11T21:06:34.480Z,11.30
2022-12-11T21:09:04.346Z,14.80
2022-12-11T21:11:31.104Z,12.50
2022-12-11T21:13:58.148Z,13.97
2022-12-11T21:16:25.501Z,18.07
2022-12-11T21:18:53.478Z,18.67
2022-12-11T21:21:20.125Z,18.20
2022-12-11T21:23:46.861Z,19.03
2022-12-11T21:26:13.592Z,14.03
2022-12-11T21:28:40.499Z,12.27
2022-12-11T21:31:11.319Z,16.42
2022-12-11T21:33:38.015Z,13.97
2022-12-11T21:36:06.508Z,17.00
2022-12-11T21:38:33.638Z,11.13
2022-12-11T21:41:08.412Z,11.33
2022-12-11T21:43:35.113Z,13.77
2022-12-11T21:46:02.476Z,14.33
2022-12-11T21:48:29.506Z,18.67
2022-12-11T21:50:56.290Z,18.53
2022-12-11T21:53:23.057Z,15.80
2022-12-11T21:55:49.790Z,15.43
2022-12-11T21:58:16.418Z,13.60
2022-12-11T22:00:45.496Z,11.30
2022-12-11T22:03:12.213Z,13.93
2022-12-11T22:05:39.005Z,12.57
2022-12-11T22:08:05.926Z,13.20
2022-12-11T22:10:32.778Z,14.77
2022-12-11T22:12:59.654Z,13.07
2022-12-11T22:15:26.384Z,11.70
2022-12-11T22:17:53.011Z,10.83
2022-12-11T22:20:19.819Z,11.30
2022-12-11T22:22:46.891Z,16.63
2022-12-11T22:25:14.135Z,12.70
2022-12-11T22:27:40.923Z,11.37
2022-12-11T22:30:08.419Z,12.00
2022-12-11T22:32:35.290Z,11.40
2022-12-11T22:35:02.065Z,11.03
2022-12-11T22:37:29.766Z,13.03
2022-12-11T22:39:56.570Z,14.00
2022-12-11T22:42:23.390Z,12.93
2022-12-11T22:44:50.104Z,13.90
2022-12-11T22:47:16.830Z,13.30
2022-12-11T22:49:43.527Z,10.53
2022-12-11T22:52:10.454Z,13.67
2022-12-11T22:54:41.865Z,13.80
2022-12-11T22:57:09.076Z,15.33
2022-12-11T22:59:36.584Z,16.43
2022-12-11T23:02:03.850Z,12.70
2022-12-11T23:04:30.929Z,15.17
2022-12-11T23:06:58.539Z,14.07
2022-12-11T23:09:28.963Z,12.57
2022-12-11T23:11:58.859Z,13.53
2022-12-11T23:14:26.072Z,14.70
2022-12-11T23:16:52.967Z,12.57
2022-12-11T23:19:25.331Z,17.80
2022-12-11T23:21:53.028Z,15.23
2022-12-11T23:24:19.900Z,13.73
2022-12-11T23:26:48.250Z,17.03
2022-12-11T23:29:15.400Z,20.30
2022-12-11T23:31:42.415Z,15.97
2022-12-11T23:34:09.325Z,16.10
2022-12-11T23:36:36.183Z,11.67
2022-12-11T23:39:03.657Z,15.67
2022-12-11T23:41:30.492Z,14.10
2022-12-11T23:43:57.334Z,12.63
2022-12-11T23:46:25.281Z,12.03
2022-12-11T23:48:53.129Z,13.67
2022-12-11T23:51:22.137Z,15.17
2022-12-11T23:53:49.619Z,14.40
2022-12-11T23:56:19.744Z,14.43
2022-12-11T23:58:49.170Z,10.90
